Ana Sayfa
METAR-TAF:

METAR-TAF

Havaalanları :

Emerald, Avustralya

Enlem: 23-34-03S, Boylam: 148-10-45E, yükseklik: 190 m

Güncel hava durumu gözlemi

Rapor saat 12:00 UTC de 52 dakika önce yapıldı.
Rüzgar doğu/güneydoğudan 6 kt
Sıcaklık 19°C
Nem 73%
Basınç 1025 hPa
Görüş mesafesi 10 km veya daha fazla
6700 ft yükseklikte çok bulutlu

METAR: YEML 271200Z AUTO 11006KT 9999 // OVC067 19/14 Q1025

Saat: 22:52 (12:52 UTC)


TAF: eksik

4.000'den fazla havaalanı için hava durumu gözlemleri ve tahminleri (METAR ve TAF raporları).

Kullanılabilir istasyonlar harita üzerinde sarı ve kırmızı noktalarla gösterilir.

İstasyonun adını görmek için fareyi noktanın üzerinde gezdirin.

Sonrasında hava gözlem ve tahminlerini görmek için tıklayın.

Haritayı değiştirmek için: yaklaştırmak için siyah artı işaretli yeşil düğmeye ve uzaklaştırmak için de eksi işaretli düğmeye hızla tıklayın; bitişik haritalar için yeşil okları kullanın.


METAR-TAF: